createdAt,value
2023-10-02T00:00:43.504Z,781.87
2023-10-02T00:03:12.332Z,782.83
2023-10-02T00:05:52.076Z,783.27
2023-10-02T00:08:39.128Z,784.97
2023-10-02T00:11:33.868Z,782.35
2023-10-02T00:14:20.571Z,782.80
2023-10-02T00:17:02.335Z,784.45
2023-10-02T00:19:34.205Z,781.33
2023-10-02T00:22:06.749Z,780.22
2023-10-02T00:24:36.567Z,781.15
2023-10-02T00:27:03.849Z,784.50
2023-10-02T00:29:32.176Z,783.67
2023-10-02T00:32:00.234Z,784.37
2023-10-02T00:34:36.968Z,779.33
2023-10-02T00:37:14.785Z,779.58
2023-10-02T00:39:42.660Z,779.08
2023-10-02T00:42:25.608Z,774.63
2023-10-02T00:45:13.575Z,787.42
2023-10-02T00:47:43.955Z,767.83
2023-10-02T00:50:18.158Z,782.33
2023-10-02T00:52:48.854Z,780.10
2023-10-02T00:55:18.497Z,789.35
2023-10-02T00:57:46.881Z,783.75
2023-10-02T01:00:20.973Z,797.55
2023-10-02T01:02:49.456Z,755.20
2023-10-02T01:05:31.439Z,759.22
2023-10-02T01:08:04.659Z,702.58
2023-10-02T01:10:31.938Z,738.28
2023-10-02T01:13:03.177Z,701.23
2023-10-02T01:15:48.689Z,754.15
2023-10-02T01:18:23.003Z,709.40
2023-10-02T01:20:54.620Z,684.85
2023-10-02T01:23:24.215Z,631.20
2023-10-02T01:25:51.699Z,672.60
2023-10-02T01:28:26.341Z,737.55
2023-10-02T01:30:56.463Z,744.38
2023-10-02T01:33:27.873Z,371.00
2023-10-02T01:36:01.079Z,577.15
2023-10-02T01:38:28.615Z,448.52
2023-10-02T01:41:03.150Z,560.63
2023-10-02T01:43:33.316Z,476.40
2023-10-02T01:46:04.537Z,494.80
2023-10-02T01:48:48.027Z,568.50
2023-10-02T01:51:22.322Z,519.55
2023-10-02T01:53:50.978Z,681.55
2023-10-02T01:56:18.807Z,708.10
2023-10-02T01:58:49.040Z,708.67
2023-10-02T02:01:21.847Z,716.08
2023-10-02T02:03:51.300Z,755.13
2023-10-02T02:06:23.028Z,794.10
2023-10-02T02:08:54.153Z,771.83
2023-10-02T02:11:22.483Z,731.25
2023-10-02T02:13:50.870Z,747.42
2023-10-02T02:16:23.448Z,725.90
2023-10-02T02:18:57.249Z,740.40
2023-10-02T02:21:25.325Z,729.30
2023-10-02T02:24:08.111Z,763.13
2023-10-02T02:26:37.536Z,656.85
2023-10-02T02:29:05.238Z,711.78
2023-10-02T02:31:33.173Z,669.53
2023-10-02T02:34:04.422Z,748.03
2023-10-02T02:36:36.660Z,676.95
2023-10-02T02:39:17.965Z,752.40
2023-10-02T02:41:46.433Z,765.00
2023-10-02T02:44:32.814Z,767.28
2023-10-02T02:47:00.865Z,763.85
2023-10-02T02:49:30.495Z,588.23
2023-10-02T02:51:57.672Z,717.22
2023-10-02T02:54:29.306Z,648.40
2023-10-02T02:57:01.789Z,586.17
2023-10-02T02:59:29.260Z,530.17
2023-10-02T03:02:10.555Z,479.23
2023-10-02T03:04:43.344Z,688.80
2023-10-02T03:07:18.969Z,755.80
2023-10-02T03:09:46.424Z,767.53
2023-10-02T03:12:14.576Z,732.20
2023-10-02T03:14:41.766Z,785.90
2023-10-02T03:17:29.736Z,786.63
2023-10-02T03:19:58.559Z,769.50
2023-10-02T03:22:28.814Z,764.47
2023-10-02T03:25:21.804Z,764.78
2023-10-02T03:27:49.616Z,760.30
2023-10-02T03:30:36.512Z,758.83
2023-10-02T03:33:05.065Z,763.17
2023-10-02T03:35:40.594Z,757.90
2023-10-02T03:38:07.837Z,750.47
2023-10-02T03:40:36.091Z,772.80
2023-10-02T03:43:20.383Z,768.75
2023-10-02T03:45:52.215Z,765.38
2023-10-02T03:48:19.429Z,750.00
2023-10-02T03:50:46.499Z,719.80
2023-10-02T03:53:14.164Z,744.13
2023-10-02T03:55:42.066Z,765.20
2023-10-02T03:58:10.470Z,767.70
2023-10-02T04:00:52.047Z,760.92
2023-10-02T04:03:20.013Z,764.35
2023-10-02T04:05:47.313Z,671.27
2023-10-02T04:08:16.182Z,713.83
2023-10-02T04:10:57.956Z,669.00
2023-10-02T04:13:35.765Z,730.55
2023-10-02T04:16:22.779Z,751.47
2023-10-02T04:19:03.690Z,778.60
2023-10-02T04:21:34.396Z,783.42
2023-10-02T04:24:02.171Z,709.27
2023-10-02T04:26:34.725Z,724.33
2023-10-02T04:29:20.974Z,655.17
2023-10-02T04:32:05.995Z,667.42
2023-10-02T04:34:37.940Z,715.90
2023-10-02T04:37:21.374Z,762.60
2023-10-02T04:40:15.710Z,769.58
2023-10-02T04:43:20.171Z,763.22
2023-10-02T04:45:48.253Z,748.08
2023-10-02T04:48:19.715Z,758.75
2023-10-02T04:50:47.088Z,766.45
2023-10-02T04:53:23.475Z,752.13
2023-10-02T04:56:10.283Z,744.13
2023-10-02T04:58:50.782Z,747.78
2023-10-02T05:01:30.960Z,756.17
2023-10-02T05:04:04.255Z,747.38
2023-10-02T05:06:45.449Z,743.00
2023-10-02T05:09:19.629Z,744.67
2023-10-02T05:11:53.475Z,743.00
2023-10-02T05:14:34.619Z,741.30
2023-10-02T05:17:19.488Z,740.13
2023-10-02T05:19:57.896Z,743.90
2023-10-02T05:22:26.916Z,733.70
2023-10-02T05:24:59.862Z,732.35
2023-10-02T05:27:31.526Z,734.83
2023-10-02T05:30:02.955Z,753.22
2023-10-02T05:32:33.165Z,732.65
2023-10-02T05:35:15.580Z,725.00
2023-10-02T05:37:55.890Z,714.90
2023-10-02T05:40:23.398Z,715.78
2023-10-02T05:43:06.514Z,713.70
2023-10-02T05:45:46.439Z,707.50
2023-10-02T05:48:26.665Z,706.67
2023-10-02T05:50:54.452Z,695.83
2023-10-02T05:53:36.088Z,693.57
2023-10-02T05:56:07.174Z,691.92
2023-10-02T05:58:38.081Z,690.60
2023-10-02T06:01:08.644Z,692.97
2023-10-02T06:03:37.064Z,689.63
2023-10-02T06:06:19.233Z,691.60
2023-10-02T06:08:49.463Z,693.35
2023-10-02T06:11:35.373Z,700.40
2023-10-02T06:14:12.135Z,703.25
2023-10-02T06:16:41.137Z,698.20
2023-10-02T06:19:15.740Z,686.55
2023-10-02T06:21:47.495Z,666.78
2023-10-02T06:24:18.457Z,638.55
2023-10-02T06:26:56.940Z,604.15
2023-10-02T06:29:24.326Z,582.42
2023-10-02T06:31:52.548Z,592.00
2023-10-02T06:34:19.992Z,639.05
2023-10-02T06:37:03.490Z,720.67
2023-10-02T06:39:36.578Z,813.67
2023-10-02T06:42:07.352Z,867.97
2023-10-02T06:44:53.937Z,894.03
2023-10-02T06:47:42.881Z,956.33
2023-10-02T06:50:28.998Z,972.42
2023-10-02T06:52:56.876Z,967.37
2023-10-02T06:55:26.470Z,783.28
2023-10-02T06:57:54.074Z,819.33
2023-10-02T07:00:22.853Z,831.85
2023-10-02T07:02:59.709Z,965.63
2023-10-02T07:05:28.404Z,959.53
2023-10-02T07:08:02.765Z,904.25
2023-10-02T07:10:42.903Z,923.42
2023-10-02T07:13:25.792Z,828.75
2023-10-02T07:15:57.332Z,1009.85
2023-10-02T07:18:39.420Z,981.97
2023-10-02T07:21:10.113Z,908.13
2023-10-02T07:23:40.245Z,960.83
2023-10-02T07:26:14.708Z,1000.60
2023-10-02T07:28:54.152Z,1035.68
2023-10-02T07:31:21.714Z,981.50
2023-10-02T07:33:48.866Z,930.30
2023-10-02T07:36:16.909Z,1013.33
2023-10-02T07:38:47.483Z,947.95
2023-10-02T07:41:29.446Z,975.97
2023-10-02T07:44:08.282Z,1012.45
2023-10-02T07:46:37.873Z,991.65
2023-10-02T07:49:06.774Z,1006.72
2023-10-02T07:51:37.691Z,986.75
2023-10-02T07:54:09.027Z,947.20
2023-10-02T07:56:36.931Z,1008.05
2023-10-02T07:59:04.952Z,1008.67
2023-10-02T08:01:35.018Z,1009.88
2023-10-02T08:04:03.456Z,955.47
2023-10-02T08:07:01.898Z,1017.45
2023-10-02T08:09:39.601Z,1050.38
2023-10-02T08:12:09.475Z,1040.90
2023-10-02T08:14:41.388Z,1002.08
2023-10-02T08:17:36.502Z,953.22
2023-10-02T08:20:25.925Z,1034.78
2023-10-02T08:22:53.729Z,1028.50
2023-10-02T08:25:27.290Z,1025.15
2023-10-02T08:27:57.322Z,1024.93
2023-10-02T08:30:36.410Z,1031.22
2023-10-02T08:33:07.845Z,1007.78
2023-10-02T08:35:47.424Z,987.83
2023-10-02T08:38:27.747Z,994.53
2023-10-02T08:40:58.982Z,987.15
2023-10-02T08:43:29.970Z,1021.85
2023-10-02T08:46:01.088Z,1013.13
2023-10-02T08:48:33.154Z,1030.63
2023-10-02T08:51:00.682Z,1041.50
2023-10-02T08:53:30.298Z,1037.75
2023-10-02T08:56:22.793Z,946.97
2023-10-02T08:59:09.157Z,964.25
2023-10-02T09:01:36.386Z,1048.80
2023-10-02T09:04:27.167Z,933.70
2023-10-02T09:07:13.014Z,924.55
2023-10-02T09:09:46.318Z,908.63
2023-10-02T09:12:18.413Z,1001.53
2023-10-02T09:14:45.677Z,873.50
2023-10-02T09:17:19.462Z,847.58
2023-10-02T09:20:00.069Z,1034.32
2023-10-02T09:22:28.809Z,1056.40
2023-10-02T09:25:10.382Z,1057.87
2023-10-02T09:27:42.728Z,949.97
2023-10-02T09:30:42.148Z,985.65
2023-10-02T09:33:32.316Z,1034.60
2023-10-02T09:36:23.411Z,1010.70
2023-10-02T09:38:54.989Z,1027.78
2023-10-02T09:41:24.607Z,1025.87
2023-10-02T09:43:52.234Z,1044.53
2023-10-02T09:46:29.498Z,1046.07
2023-10-02T09:49:05.729Z,1033.90
2023-10-02T09:52:10.498Z,1038.73
2023-10-02T09:54:42.212Z,1018.53
2023-10-02T09:57:14.774Z,1050.73
2023-10-02T09:59:48.697Z,1079.00
2023-10-02T10:02:23.060Z,1082.22
2023-10-02T10:05:12.084Z,1078.97
2023-10-02T10:08:01.004Z,1076.82
2023-10-02T10:10:48.697Z,1057.72
2023-10-02T10:13:35.101Z,1066.40
2023-10-02T10:16:20.645Z,1062.22
2023-10-02T10:19:05.963Z,1030.32
2023-10-02T10:21:57.746Z,1027.63
2023-10-02T10:24:36.625Z,1034.95
2023-10-02T10:27:03.831Z,1134.22
2023-10-02T10:29:42.588Z,1059.50
2023-10-02T10:32:19.890Z,1142.78
2023-10-02T10:35:13.400Z,1170.75
2023-10-02T10:37:42.321Z,1057.82
2023-10-02T10:40:32.463Z,1074.40
2023-10-02T10:43:06.561Z,1105.70
2023-10-02T10:45:35.119Z,1073.65
2023-10-02T10:48:03.134Z,1048.38
2023-10-02T10:50:31.593Z,1046.40
2023-10-02T10:53:22.707Z,1056.33
2023-10-02T10:55:56.481Z,1061.50
2023-10-02T10:58:32.607Z,1074.13
2023-10-02T11:01:00.021Z,1101.07
2023-10-02T11:03:27.956Z,1049.93
2023-10-02T11:06:02.699Z,1045.60
2023-10-02T11:08:31.438Z,1071.63
2023-10-02T11:11:10.441Z,1109.65
2023-10-02T11:13:57.519Z,1105.25
2023-10-02T11:16:32.154Z,1124.03
2023-10-02T11:19:22.301Z,795.70
2023-10-02T11:22:02.402Z,1054.10
2023-10-02T11:24:30.108Z,1089.60
2023-10-02T11:27:12.245Z,1151.82
2023-10-02T11:29:42.363Z,1177.50
2023-10-02T11:32:23.614Z,1177.30
2023-10-02T11:34:52.113Z,1192.68
2023-10-02T11:37:20.392Z,1239.05
2023-10-02T11:39:51.838Z,1217.93
2023-10-02T11:42:22.553Z,1179.43
2023-10-02T11:44:49.923Z,1206.22
2023-10-02T11:47:17.275Z,167.50
2023-10-02T11:49:46.030Z,12.55
2023-10-02T11:52:13.212Z,199.25
2023-10-02T11:54:43.767Z,1178.50
2023-10-02T11:57:14.770Z,1194.10
2023-10-02T11:59:43.591Z,1164.80
2023-10-02T12:02:14.854Z,1201.85
2023-10-02T12:04:42.080Z,1177.47
2023-10-02T12:07:09.260Z,1180.60
2023-10-02T12:09:39.699Z,1183.88
2023-10-02T12:12:12.441Z,1228.20
2023-10-02T12:14:41.097Z,1204.28
2023-10-02T12:17:12.963Z,1123.03
2023-10-02T12:19:41.289Z,1097.63
2023-10-02T12:22:10.221Z,1171.60
2023-10-02T12:24:38.741Z,1182.17
2023-10-02T12:27:12.061Z,1194.13
2023-10-02T12:29:39.817Z,1212.10
2023-10-02T12:32:08.854Z,1179.37
2023-10-02T12:34:35.967Z,1226.47
2023-10-02T12:37:04.914Z,1211.15
2023-10-02T12:39:34.440Z,1200.35
2023-10-02T12:42:04.136Z,1180.68
2023-10-02T12:44:32.050Z,1194.25
2023-10-02T12:46:59.635Z,1194.45
2023-10-02T12:49:26.913Z,1184.07
2023-10-02T12:51:54.201Z,1212.00
2023-10-02T12:54:21.493Z,1183.78
2023-10-02T12:56:48.924Z,1172.60
2023-10-02T12:59:16.997Z,1214.60
2023-10-02T13:01:45.377Z,1237.07
2023-10-02T13:04:15.779Z,1261.57
2023-10-02T13:06:46.369Z,1236.55
2023-10-02T13:09:17.015Z,1206.25
2023-10-02T13:11:48.667Z,1173.18
2023-10-02T13:14:19.953Z,1174.10
2023-10-02T13:16:49.568Z,1160.85
2023-10-02T13:19:17.664Z,1109.60
2023-10-02T13:21:46.125Z,1070.93
2023-10-02T13:24:17.124Z,1080.93
2023-10-02T13:26:44.882Z,1054.28
2023-10-02T13:29:12.417Z,1060.65
2023-10-02T13:31:40.001Z,1063.60
2023-10-02T13:34:10.713Z,1108.55
2023-10-02T13:36:38.499Z,1110.53
2023-10-02T13:39:06.091Z,1081.70
2023-10-02T13:41:35.928Z,1099.95
2023-10-02T13:44:05.406Z,1119.72
2023-10-02T13:46:36.159Z,1124.72
2023-10-02T13:49:06.434Z,1133.65
2023-10-02T13:51:33.620Z,1148.95
2023-10-02T13:54:00.737Z,1164.15
2023-10-02T13:56:30.910Z,1166.47
2023-10-02T13:58:58.510Z,1153.43
2023-10-02T14:01:26.866Z,1149.40
2023-10-02T14:03:54.808Z,1175.65
2023-10-02T14:06:24.508Z,1188.60
2023-10-02T14:08:58.542Z,1129.47
2023-10-02T14:11:26.829Z,1104.57
2023-10-02T14:14:01.006Z,1094.45
2023-10-02T14:16:28.998Z,1098.47
2023-10-02T14:18:59.316Z,1043.47
2023-10-02T14:21:27.346Z,1069.97
2023-10-02T14:23:55.647Z,1080.40
2023-10-02T14:26:24.154Z,1088.60
2023-10-02T14:28:59.643Z,1082.33
2023-10-02T14:31:33.976Z,1091.78
2023-10-02T14:34:02.099Z,1154.93
2023-10-02T14:36:30.282Z,1153.05
2023-10-02T14:38:58.369Z,1190.93
2023-10-02T14:41:27.721Z,1157.45
2023-10-02T14:43:55.578Z,1155.25
2023-10-02T14:46:25.606Z,1156.65
2023-10-02T14:48:54.617Z,1161.18
2023-10-02T14:51:23.931Z,1185.65
2023-10-02T14:53:51.246Z,1197.07
2023-10-02T14:56:18.474Z,1188.45
2023-10-02T14:58:50.805Z,1155.40
2023-10-02T15:01:21.096Z,1095.47
2023-10-02T15:03:49.453Z,1142.55
2023-10-02T15:06:16.921Z,1137.05
2023-10-02T15:08:47.238Z,1150.07
2023-10-02T15:11:16.118Z,1143.07
2023-10-02T15:13:44.171Z,1104.13
2023-10-02T15:16:13.065Z,1105.50
2023-10-02T15:18:41.112Z,1107.87
2023-10-02T15:21:09.206Z,1045.63
2023-10-02T15:23:43.891Z,1052.23
2023-10-02T15:26:16.330Z,1047.13
2023-10-02T15:28:49.616Z,1124.07
2023-10-02T15:31:18.932Z,1138.13
2023-10-02T15:33:49.118Z,1106.78
2023-10-02T15:36:18.815Z,1106.55
2023-10-02T15:38:50.150Z,1051.90
2023-10-02T15:41:27.615Z,1011.92
2023-10-02T15:43:54.924Z,1000.37
2023-10-02T15:46:22.132Z,994.17
2023-10-02T15:48:50.334Z,1010.63
2023-10-02T15:51:23.475Z,978.67
2023-10-02T15:53:51.606Z,982.55
2023-10-02T15:56:21.273Z,985.13
2023-10-02T15:58:49.034Z,992.00
2023-10-02T16:01:19.128Z,1005.42
2023-10-02T16:03:48.102Z,1046.00
2023-10-02T16:06:26.676Z,1025.03
2023-10-02T16:08:54.005Z,1040.75
2023-10-02T16:11:24.664Z,1028.65
2023-10-02T16:13:53.481Z,1003.17
2023-10-02T16:16:23.898Z,1014.95
2023-10-02T16:18:55.085Z,994.03
2023-10-02T16:21:22.742Z,997.97
2023-10-02T16:23:50.441Z,990.33
2023-10-02T16:26:21.733Z,980.07
2023-10-02T16:28:52.471Z,971.47
2023-10-02T16:31:26.946Z,976.60
2023-10-02T16:33:54.338Z,978.63
2023-10-02T16:36:28.111Z,942.60
2023-10-02T16:39:05.937Z,939.10
2023-10-02T16:41:34.882Z,937.30
2023-10-02T16:44:05.410Z,934.28
2023-10-02T16:46:36.797Z,956.72
2023-10-02T16:49:04.174Z,979.93
2023-10-02T16:51:31.445Z,994.10
2023-10-02T16:53:58.839Z,974.75
2023-10-02T16:56:26.120Z,937.78
2023-10-02T16:58:53.491Z,912.53
2023-10-02T17:01:23.541Z,915.88
2023-10-02T17:03:56.682Z,906.65
2023-10-02T17:06:23.995Z,908.03
2023-10-02T17:08:53.406Z,915.03
2023-10-02T17:11:24.224Z,914.17
2023-10-02T17:13:51.367Z,904.85
2023-10-02T17:16:18.502Z,906.83
2023-10-02T17:18:45.837Z,901.83
2023-10-02T17:21:15.391Z,896.63
2023-10-02T17:23:44.056Z,893.00
2023-10-02T17:26:12.242Z,897.20
2023-10-02T17:28:44.243Z,899.97
2023-10-02T17:31:11.902Z,893.35
2023-10-02T17:33:43.306Z,889.17
2023-10-02T17:36:10.927Z,893.00
2023-10-02T17:38:38.162Z,885.22
2023-10-02T17:41:05.497Z,877.10
2023-10-02T17:43:37.806Z,874.65
2023-10-02T17:46:07.755Z,872.97
2023-10-02T17:48:35.494Z,896.53
2023-10-02T17:51:02.694Z,871.00
2023-10-02T17:53:29.853Z,868.17
2023-10-02T17:55:59.882Z,869.03
2023-10-02T17:58:30.564Z,877.35
2023-10-02T18:01:05.025Z,867.97
2023-10-02T18:03:32.870Z,904.42
2023-10-02T18:06:01.573Z,905.83
2023-10-02T18:08:31.944Z,912.13
2023-10-02T18:10:59.141Z,911.73
2023-10-02T18:13:26.269Z,911.78
2023-10-02T18:15:54.845Z,884.67
2023-10-02T18:18:22.865Z,881.35
2023-10-02T18:20:52.789Z,878.90
2023-10-02T18:23:19.971Z,885.15
2023-10-02T18:25:54.507Z,892.25
2023-10-02T18:28:24.504Z,881.05
2023-10-02T18:30:51.760Z,884.47
2023-10-02T18:33:23.836Z,857.00
2023-10-02T18:35:51.794Z,848.97
2023-10-02T18:38:18.965Z,852.17
2023-10-02T18:40:53.911Z,848.75
2023-10-02T18:43:20.938Z,845.45
2023-10-02T18:45:48.293Z,841.13
2023-10-02T18:48:16.363Z,839.85
2023-10-02T18:50:43.586Z,832.97
2023-10-02T18:53:10.998Z,820.40
2023-10-02T18:55:38.214Z,842.38
2023-10-02T18:58:06.754Z,836.57
2023-10-02T19:00:33.954Z,837.65
2023-10-02T19:03:02.098Z,831.42
2023-10-02T19:05:29.844Z,823.42
2023-10-02T19:07:57.286Z,816.10
2023-10-02T19:10:25.042Z,823.17
2023-10-02T19:12:52.202Z,828.27
2023-10-02T19:15:19.479Z,823.15
2023-10-02T19:17:46.643Z,827.85
2023-10-02T19:20:14.425Z,822.63
2023-10-02T19:22:42.770Z,809.28
2023-10-02T19:25:10.653Z,802.25
2023-10-02T19:27:37.828Z,803.70
2023-10-02T19:30:05.208Z,801.17
2023-10-02T19:32:34.546Z,808.70
2023-10-02T19:35:03.944Z,808.58
2023-10-02T19:37:34.116Z,812.93
2023-10-02T19:40:01.304Z,811.80
2023-10-02T19:42:28.520Z,808.15
2023-10-02T19:44:55.838Z,796.47
2023-10-02T19:47:23.027Z,792.70
2023-10-02T19:49:50.136Z,784.40
2023-10-02T19:52:24.575Z,781.73
2023-10-02T19:54:52.649Z,783.05
2023-10-02T19:57:19.777Z,779.20
2023-10-02T19:59:52.146Z,780.65
2023-10-02T20:02:19.456Z,784.97
2023-10-02T20:04:47.568Z,791.58
2023-10-02T20:07:16.272Z,797.15
2023-10-02T20:09:46.222Z,804.53
2023-10-02T20:12:13.673Z,800.75
2023-10-02T20:14:40.855Z,802.40
2023-10-02T20:17:08.073Z,803.43
2023-10-02T20:19:36.122Z,808.03
2023-10-02T20:22:07.578Z,802.30
2023-10-02T20:24:34.747Z,800.50
2023-10-02T20:27:02.008Z,790.42
2023-10-02T20:29:29.205Z,781.10
2023-10-02T20:31:56.380Z,781.50
2023-10-02T20:34:36.483Z,790.80
2023-10-02T20:37:05.257Z,789.55
2023-10-02T20:39:32.708Z,797.33
2023-10-02T20:42:00.031Z,800.83
2023-10-02T20:44:27.178Z,799.15
2023-10-02T20:47:11.654Z,798.67
2023-10-02T20:49:41.608Z,786.70
2023-10-02T20:52:08.736Z,767.65
2023-10-02T20:54:35.963Z,761.33
2023-10-02T20:57:04.182Z,757.87
2023-10-02T20:59:31.387Z,759.63
2023-10-02T21:01:58.566Z,763.67
2023-10-02T21:04:27.937Z,766.00
2023-10-02T21:06:55.276Z,777.28
2023-10-02T21:09:23.677Z,773.13
2023-10-02T21:11:53.858Z,779.80
2023-10-02T21:14:24.205Z,786.47
2023-10-02T21:16:51.685Z,791.55
2023-10-02T21:19:18.885Z,776.80
2023-10-02T21:21:52.783Z,768.45
2023-10-02T21:24:22.392Z,773.88
2023-10-02T21:26:50.401Z,775.05
2023-10-02T21:29:17.744Z,768.00
2023-10-02T21:31:44.924Z,754.20
2023-10-02T21:34:15.054Z,747.65
2023-10-02T21:36:45.056Z,743.70
2023-10-02T21:39:21.707Z,738.08
2023-10-02T21:41:48.903Z,731.67
2023-10-02T21:44:16.106Z,729.13
2023-10-02T21:46:43.740Z,729.20
2023-10-02T21:49:12.233Z,723.28
2023-10-02T21:51:39.820Z,717.63
2023-10-02T21:54:07.111Z,701.30
2023-10-02T21:56:36.033Z,709.58
2023-10-02T21:59:04.352Z,715.30
2023-10-02T22:01:31.784Z,731.37
2023-10-02T22:03:59.161Z,740.30
2023-10-02T22:06:28.777Z,745.38
2023-10-02T22:08:55.927Z,749.10
2023-10-02T22:11:28.324Z,748.55
2023-10-02T22:13:55.484Z,749.10
2023-10-02T22:16:25.937Z,750.72
2023-10-02T22:18:53.299Z,735.42
2023-10-02T22:21:25.019Z,726.70
2023-10-02T22:23:55.239Z,722.20
2023-10-02T22:26:25.178Z,721.78
2023-10-02T22:28:52.338Z,723.97
2023-10-02T22:31:19.860Z,727.15
2023-10-02T22:33:48.294Z,724.50
2023-10-02T22:36:18.412Z,714.60
2023-10-02T22:38:49.145Z,703.78
2023-10-02T22:41:16.422Z,709.78
2023-10-02T22:43:43.532Z,711.03
2023-10-02T22:46:12.600Z,718.78
2023-10-02T22:48:42.677Z,725.58
2023-10-02T22:51:09.817Z,722.40
2023-10-02T22:53:37.984Z,717.07
2023-10-02T22:56:05.982Z,725.95
2023-10-02T22:58:33.254Z,720.70
2023-10-02T23:01:00.658Z,712.55
2023-10-02T23:03:28.781Z,707.78
2023-10-02T23:05:56.788Z,697.70
2023-10-02T23:08:24.142Z,686.67
2023-10-02T23:10:52.458Z,682.13
2023-10-02T23:13:20.312Z,676.33
2023-10-02T23:15:47.740Z,669.20
2023-10-02T23:18:15.084Z,677.88
2023-10-02T23:20:45.820Z,678.83
2023-10-02T23:23:15.173Z,690.43
2023-10-02T23:25:42.463Z,696.53
2023-10-02T23:28:09.647Z,695.95
2023-10-02T23:30:37.931Z,711.25
2023-10-02T23:33:12.693Z,716.22
2023-10-02T23:35:44.430Z,713.10
2023-10-02T23:38:15.778Z,718.60
2023-10-02T23:40:45.628Z,720.03
2023-10-02T23:43:15.395Z,724.90
2023-10-02T23:45:46.136Z,721.78
2023-10-02T23:48:17.619Z,723.53
2023-10-02T23:50:44.855Z,721.00
2023-10-02T23:53:16.464Z,703.35
2023-10-02T23:55:45.429Z,707.05
2023-10-02T23:58:12.892Z,691.90
